Time;durP1;ratioP1;P1;durP2;ratioP2;P2;SDS_P1;SDS_P2;PMS_P1;PMS_P2;Temp;Humidity;BMP_temperature;BMP_pressure;BME280_temperature;BME280_humidity;BME280_pressure;Samples;Min_cycle;Max_cycle;Signal;HPM_P1;HPM_P2
2023/05/04 00:00:29;;;;;;;8.43;4.75;;;;;;;14.56;nan;100860.34;4919778;29;20027;-70
2023/05/04 00:02:54;;;;;;;10.10;5.57;;;;;;;14.58;nan;100861.72;4921042;29;20090;-69
2023/05/04 00:05:20;;;;;;;7.22;4.75;;;;;;;14.51;nan;100853.09;4918584;29;20127;-68
2023/05/04 00:07:45;;;;;;;8.18;4.60;;;;;;;14.50;nan;100851.47;4918999;29;20027;-69
2023/05/04 00:10:11;;;;;;;9.38;4.65;;;;;;;14.51;nan;100857.56;4917825;29;20032;-71
2023/05/04 00:12:36;;;;;;;8.05;5.13;;;;;;;14.50;nan;100854.09;4933455;28;20031;-71
2023/05/04 00:15:02;;;;;;;11.40;4.70;;;;;;;14.49;nan;100849.88;4916534;29;20061;-71
2023/05/04 00:17:28;;;;;;;8.93;4.70;;;;;;;14.44;nan;100834.69;4922308;29;20039;-71
2023/05/04 00:19:53;;;;;;;8.10;4.95;;;;;;;14.52;nan;100852.03;4919768;29;20027;-71
2023/05/04 00:22:19;;;;;;;8.30;4.63;;;;;;;14.57;nan;100854.78;4919910;29;20479;-71
2023/05/04 00:24:44;;;;;;;8.27;5.07;;;;;;;14.58;nan;100851.13;4920538;29;20025;-71
2023/05/04 00:27:10;;;;;;;10.73;5.13;;;;;;;14.54;nan;100847.31;4922549;29;20451;-69
2023/05/04 00:29:36;;;;;;;13.48;5.50;;;;;;;14.57;nan;100846.03;4933323;28;20047;-70
2023/05/04 00:32:01;;;;;;;9.00;5.03;;;;;;;14.45;nan;100824.88;4922166;29;20043;-70
2023/05/04 00:34:28;;;;;;;16.20;6.00;;;;;;;14.58;nan;100839.69;4923161;29;20386;-70
2023/05/04 00:36:53;;;;;;;8.10;5.40;;;;;;;14.59;nan;100843.97;4917588;29;20126;-70
2023/05/04 00:39:19;;;;;;;11.38;6.68;;;;;;;14.56;nan;100850.53;4920585;29;20155;-69
2023/05/04 00:41:44;;;;;;;12.13;5.80;;;;;;;14.57;nan;100846.03;4920939;29;20032;-69
2023/05/04 00:44:10;;;;;;;13.88;6.05;;;;;;;14.56;nan;100847.09;4918734;29;20098;-70
2023/05/04 00:46:36;;;;;;;11.98;6.75;;;;;;;14.54;nan;100849.97;4919848;29;20032;-70
2023/05/04 00:49:02;;;;;;;9.80;6.70;;;;;;;14.52;nan;100845.94;4920745;29;20483;-70
2023/05/04 00:51:29;;;;;;;11.68;5.93;;;;;;;14.52;nan;100849.38;4919336;29;20047;-70
2023/05/04 00:53:55;;;;;;;10.23;6.18;;;;;;;14.48;nan;100842.94;4917880;29;20039;-71
2023/05/04 00:56:25;;;;;;;9.57;5.97;;;;;;;14.45;nan;100843.44;4927033;29;20036;-70
2023/05/04 00:58:53;;;;;;;9.93;6.20;;;;;;;14.26;nan;100825.09;4919464;29;20019;-70
2023/05/04 01:01:20;;;;;;;9.40;6.40;;;;;;;14.28;nan;100826.72;4919300;29;20043;-70
2023/05/04 01:03:47;;;;;;;8.15;5.82;;;;;;;14.24;nan;100832.47;4917870;29;20035;-70
2023/05/04 01:06:51;;;;;;;8.63;6.40;;;;;;;14.28;nan;100842.63;4929089;28;20050;-70
2023/05/04 01:09:37;;;;;;;9.23;6.25;;;;;;;14.27;nan;100831.22;4929924;29;20038;-70
2023/05/04 01:12:08;;;;;;;9.05;6.03;;;;;;;14.24;nan;100829.81;4929337;29;20036;-72
2023/05/04 01:14:34;;;;;;;10.20;6.00;;;;;;;14.24;nan;100835.13;4934133;29;20127;-70
2023/05/04 01:17:04;;;;;;;10.05;6.00;;;;;;;14.17;nan;100826.50;4928553;29;20486;-71
2023/05/04 01:19:29;;;;;;;13.02;6.10;;;;;;;14.21;nan;100834.81;4924334;29;20039;-71
2023/05/04 01:21:55;;;;;;;12.52;6.03;;;;;;;14.15;nan;100819.84;4922484;29;20040;-71
2023/05/04 01:24:22;;;;;;;14.95;6.10;;;;;;;14.15;nan;100823.31;4923427;29;20056;-71
2023/05/04 01:26:54;;;;;;;8.35;5.72;;;;;;;14.22;nan;100831.94;4924469;29;20040;-71
2023/05/04 01:29:35;;;;;;;10.35;6.72;;;;;;;14.25;nan;100830.66;4922213;29;20043;-70
2023/05/04 01:32:01;;;;;;;10.35;6.75;;;;;;;14.22;nan;100828.44;4924354;29;20566;-70
2023/05/04 01:34:27;;;;;;;9.68;6.30;;;;;;;14.21;nan;100824.22;4926176;29;20036;-70
2023/05/04 01:36:53;;;;;;;11.48;6.85;;;;;;;14.28;nan;100837.31;4922535;29;20533;-70
2023/05/04 01:39:19;;;;;;;11.23;6.40;;;;;;;14.09;nan;100803.09;4920221;29;20032;-70
2023/05/04 01:41:44;;;;;;;10.32;6.28;;;;;;;14.25;nan;100823.50;4924675;29;20038;-71
2023/05/04 01:44:10;;;;;;;7.45;6.07;;;;;;;14.26;nan;100826.94;4921414;29;20474;-69
2023/05/04 01:46:35;;;;;;;8.82;5.88;;;;;;;14.28;nan;100824.06;4922452;29;20043;-68
2023/05/04 01:49:00;;;;;;;9.98;6.22;;;;;;;14.29;nan;100820.38;4921975;29;20111;-68
2023/05/04 01:51:26;;;;;;;8.13;6.40;;;;;;;14.10;nan;100788.78;4921038;29;20494;-69
2023/05/04 01:53:51;;;;;;;10.65;6.78;;;;;;;14.30;nan;100824.63;4925631;29;20554;-70
2023/05/04 01:56:17;;;;;;;11.25;6.45;;;;;;;14.26;nan;100819.78;4928268;29;20031;-70
2023/05/04 01:58:42;;;;;;;11.40;6.32;;;;;;;13.96;nan;100779.56;4923216;29;20019;-69
2023/05/04 02:01:08;;;;;;;11.20;6.43;;;;;;;14.26;nan;100824.28;4925478;29;20035;-68
2023/05/04 02:03:33;;;;;;;15.60;6.38;;;;;;;14.13;nan;100804.22;4920222;29;20016;-70
2023/05/04 02:05:58;;;;;;;10.40;6.93;;;;;;;14.23;nan;100820.28;4921886;29;20048;-71
2023/05/04 02:08:24;;;;;;;8.77;6.45;;;;;;;14.12;nan;100797.31;4922441;28;20491;-69
2023/05/04 02:10:49;;;;;;;9.35;6.72;;;;;;;13.99;nan;100782.53;4919270;29;20032;-70
2023/05/04 02:13:15;;;;;;;10.95;7.28;;;;;;;14.04;nan;100810.94;4922836;29;20061;-69
2023/05/04 02:15:40;;;;;;;11.18;7.35;;;;;;;13.93;nan;100803.84;4922988;29;20034;-69
2023/05/04 02:18:06;;;;;;;11.82;6.85;;;;;;;13.83;nan;100799.16;4921536;29;20473;-70
2023/05/04 02:20:31;;;;;;;14.57;7.20;;;;;;;13.85;nan;100801.59;4924589;29;20055;-69
2023/05/04 02:22:57;;;;;;;13.70;7.25;;;;;;;13.92;nan;100810.19;4923208;29;20024;-69
2023/05/04 02:25:22;;;;;;;10.85;7.18;;;;;;;13.98;nan;100811.88;4919797;29;20043;-69
2023/05/04 02:27:47;;;;;;;18.25;7.10;;;;;;;14.01;nan;100814.06;4920417;29;20028;-69
2023/05/04 02:30:13;;;;;;;11.48;6.72;;;;;;;13.96;nan;100801.53;4920822;29;20043;-69
2023/05/04 02:32:38;;;;;;;14.10;7.70;;;;;;;13.99;nan;100797.63;4922891;29;20036;-69
2023/05/04 02:35:04;;;;;;;13.27;7.40;;;;;;;14.07;nan;100812.31;4921580;29;20036;-69
2023/05/04 02:37:30;;;;;;;12.15;6.88;;;;;;;14.03;nan;100810.13;4922048;29;20036;-69
2023/05/04 02:39:55;;;;;;;10.93;7.25;;;;;;;14.07;nan;100814.97;4921596;29;20091;-69
2023/05/04 02:42:20;;;;;;;12.73;7.22;;;;;;;14.08;nan;100821.84;4921190;29;20032;-70
2023/05/04 02:44:46;;;;;;;10.15;7.10;;;;;;;13.93;nan;100825.03;4920006;29;20032;-69
2023/05/04 02:47:11;;;;;;;11.48;7.22;;;;;;;14.02;nan;100807.72;4919156;29;20134;-70
2023/05/04 02:49:36;;;;;;;11.57;6.85;;;;;;;14.00;nan;100821.19;4919932;29;20036;-70
2023/05/04 02:52:02;;;;;;;10.52;6.43;;;;;;;14.02;nan;100832.34;4919692;29;20043;-70
2023/05/04 02:54:27;;;;;;;11.90;8.35;;;;;;;14.00;nan;100831.78;4920495;29;20039;-69
2023/05/04 02:56:53;;;;;;;13.05;8.20;;;;;;;14.07;nan;100833.50;4918296;29;21055;-71
2023/05/04 02:59:19;;;;;;;11.10;7.63;;;;;;;13.99;nan;100830.19;4921514;29;20032;-69
2023/05/04 03:01:44;;;;;;;12.93;7.35;;;;;;;13.97;nan;100836.75;4921208;29;20035;-69
2023/05/04 03:04:10;;;;;;;13.10;7.47;;;;;;;13.93;nan;100840.91;4921158;29;20024;-70
2023/05/04 03:06:35;;;;;;;13.20;7.43;;;;;;;13.86;nan;100840.25;4930386;29;20091;-70
2023/05/04 03:09:00;;;;;;;11.95;7.30;;;;;;;13.79;nan;100841.19;4917722;29;20402;-69
2023/05/04 03:11:26;;;;;;;10.75;7.55;;;;;;;13.85;nan;100851.88;4919603;29;20035;-70
2023/05/04 03:13:51;;;;;;;13.27;7.57;;;;;;;13.79;nan;100849.13;4917629;29;20031;-69
2023/05/04 03:16:17;;;;;;;9.63;7.15;;;;;;;13.79;nan;100851.78;4921258;29;20123;-70
2023/05/04 03:18:42;;;;;;;14.38;8.20;;;;;;;13.74;nan;100842.94;4926231;29;20035;-69
2023/05/04 03:21:07;;;;;;;15.38;8.52;;;;;;;13.78;nan;100855.47;4919997;29;20075;-69
2023/05/04 03:23:33;;;;;;;13.43;8.52;;;;;;;13.73;nan;100851.91;4919728;29;20055;-70
2023/05/04 03:25:58;;;;;;;13.25;8.50;;;;;;;13.74;nan;100851.69;4921401;29;20503;-70
2023/05/04 03:28:23;;;;;;;12.90;8.27;;;;;;;13.74;nan;100854.34;4919338;29;20456;-70
2023/05/04 03:30:49;;;;;;;12.88;7.97;;;;;;;13.74;nan;100856.97;4920741;29;20043;-69
2023/05/04 03:33:14;;;;;;;16.00;8.57;;;;;;;13.72;nan;100850.28;4918852;29;20032;-69
2023/05/04 03:35:40;;;;;;;20.35;8.95;;;;;;;13.77;nan;100861.81;4922789;29;20474;-72
2023/05/04 03:38:06;;;;;;;14.40;8.40;;;;;;;13.70;nan;100855.03;4921882;29;20028;-70
2023/05/04 03:40:32;;;;;;;13.32;8.80;;;;;;;13.73;nan;100863.31;4918918;29;20028;-70
2023/05/04 03:42:58;;;;;;;13.48;7.82;;;;;;;13.73;nan;100862.50;4921727;29;20114;-71
2023/05/04 03:45:27;;;;;;;13.77;7.95;;;;;;;13.71;nan;100860.06;4919849;29;20115;-69
2023/05/04 03:47:53;;;;;;;11.93;8.02;;;;;;;13.65;nan;100860.19;4922225;29;20055;-65
2023/05/04 03:50:18;;;;;;;14.43;8.02;;;;;;;13.68;nan;100868.50;4923632;29;20125;-69
2023/05/04 03:52:43;;;;;;;12.98;8.20;;;;;;;13.67;nan;100879.31;4917853;29;20118;-70
2023/05/04 03:55:09;;;;;;;12.93;8.05;;;;;;;13.65;nan;100866.31;4934447;28;20035;-70
2023/05/04 03:57:34;;;;;;;16.38;8.43;;;;;;;13.62;nan;100872.06;4920604;29;20050;-69
2023/05/04 04:00:00;;;;;;;14.80;8.45;;;;;;;13.48;nan;100876.00;4919399;29;20383;-69
2023/05/04 04:02:25;;;;;;;11.30;7.45;;;;;;;13.43;nan;100876.69;4920393;29;20508;-69
2023/05/04 04:04:51;;;;;;;17.58;8.40;;;;;;;13.40;nan;100877.97;4920229;29;20036;-70
2023/05/04 04:07:16;;;;;;;13.10;8.68;;;;;;;13.34;nan;100862.22;4922100;29;20491;-71
2023/05/04 04:09:41;;;;;;;13.80;8.80;;;;;;;13.38;nan;100853.59;4919608;29;20035;-71
2023/05/04 04:12:07;;;;;;;15.85;9.30;;;;;;;13.39;nan;100868.44;4927235;29;20111;-71
2023/05/04 04:14:32;;;;;;;16.52;8.88;;;;;;;13.36;nan;100878.66;4918063;29;20020;-70
2023/05/04 04:16:57;;;;;;;13.40;8.98;;;;;;;13.31;nan;100886.47;4915710;29;20031;-70
2023/05/04 04:19:23;;;;;;;12.23;8.55;;;;;;;13.27;nan;100875.56;4921390;29;20114;-71
2023/05/04 04:21:48;;;;;;;11.88;7.60;;;;;;;13.19;nan;100883.81;4924076;29;20115;-70
2023/05/04 04:24:14;;;;;;;14.20;8.27;;;;;;;13.08;nan;100871.41;4926846;29;20027;-69
2023/05/04 04:26:39;;;;;;;14.07;8.68;;;;;;;12.94;nan;100873.47;4928417;29;20040;-68
2023/05/04 04:29:04;;;;;;;15.13;8.10;;;;;;;12.82;nan;100877.94;4927298;29;20106;-70
2023/05/04 04:31:30;;;;;;;18.65;8.85;;;;;;;12.75;nan;100870.91;4925991;29;20031;-71
2023/05/04 04:33:55;;;;;;;15.30;7.88;;;;;;;12.69;nan;100857.78;4930008;29;20048;-73
2023/05/04 04:36:21;;;;;;;15.02;8.23;;;;;;;12.72;nan;100874.00;4930602;29;20027;-73
2023/05/04 04:38:46;;;;;;;13.27;8.27;;;;;;;12.58;nan;100877.88;4930928;29;20032;-71
2023/05/04 04:41:12;;;;;;;9.85;7.15;;;;;;;12.49;nan;100874.75;4922146;29;20023;-73
2023/05/04 04:43:37;;;;;;;14.40;7.30;;;;;;;12.58;nan;100890.28;4922326;29;20078;-71
2023/05/04 04:46:03;;;;;;;13.38;7.78;;;;;;;12.56;nan;100885.22;4924524;29;20012;-71
2023/05/04 04:48:28;;;;;;;14.23;7.97;;;;;;;12.63;nan;100891.22;4924504;29;20486;-71
2023/05/04 04:50:54;;;;;;;11.52;7.80;;;;;;;12.75;nan;100888.59;4923298;29;20026;-71
2023/05/04 04:53:19;;;;;;;12.82;7.57;;;;;;;12.65;nan;100889.16;4924454;29;20487;-67
2023/05/04 04:55:45;;;;;;;13.43;7.55;;;;;;;12.62;nan;100904.63;4922287;29;20031;-67
2023/05/04 04:58:10;;;;;;;17.80;8.07;;;;;;;12.58;nan;100898.22;4927169;29;20035;-73
2023/05/04 05:00:36;;;;;;;14.60;7.55;;;;;;;12.54;nan;100903.13;4926519;29;20027;-73
2023/05/04 05:03:03;;;;;;;18.33;7.53;;;;;;;12.63;nan;100906.25;4924912;29;20027;-72
2023/05/04 05:05:28;;;;;;;11.25;7.50;;;;;;;12.62;nan;100894.91;4922803;29;20554;-72
2023/05/04 05:07:54;;;;;;;11.68;7.45;;;;;;;12.71;nan;100900.66;4924151;29;20035;-71
2023/05/04 05:10:22;;;;;;;13.88;7.40;;;;;;;12.71;nan;100898.84;4922646;29;20690;-69
2023/05/04 05:12:49;;;;;;;10.45;6.72;;;;;;;12.72;nan;100897.00;4924278;29;20032;-69
2023/05/04 05:15:15;;;;;;;12.32;7.20;;;;;;;12.67;nan;100902.16;4922126;29;20028;-70
2023/05/04 05:17:41;;;;;;;17.05;7.68;;;;;;;12.67;nan;100899.50;4921447;29;20034;-70
2023/05/04 05:20:10;;;;;;;10.77;7.18;;;;;;;12.53;nan;100886.47;4920997;29;20024;-71
2023/05/04 05:22:36;;;;;;;;;;;;;;;12.59;nan;100910.38;4924223;29;20039;-69
2023/05/04 05:25:03;;;;;;;13.38;7.20;;;;;;;12.51;nan;100909.66;4925552;29;19919;-70
2023/05/04 05:27:28;;;;;;;12.63;8.07;;;;;;;12.45;nan;100907.94;4922661;29;20106;-69
2023/05/04 05:29:53;;;;;;;12.05;7.15;;;;;;;12.44;nan;100918.72;4924173;29;20126;-71
2023/05/04 05:32:19;;;;;;;18.73;8.50;;;;;;;12.27;nan;100907.97;4923107;29;20032;-71
2023/05/04 05:34:44;;;;;;;14.55;8.02;;;;;;;12.24;nan;100903.16;4924358;29;20127;-71
2023/05/04 05:37:10;;;;;;;21.63;7.95;;;;;;;12.36;nan;100919.84;4924580;29;20028;-72
2023/05/04 05:39:35;;;;;;;13.35;7.85;;;;;;;12.42;nan;100920.78;4922533;29;20032;-70
2023/05/04 05:42:02;;;;;;;10.45;7.35;;;;;;;12.43;nan;100925.84;4922611;29;20007;-70
2023/05/04 05:44:27;;;;;;;13.98;8.13;;;;;;;12.44;nan;100927.44;4923513;29;20039;-70
2023/05/04 05:46:54;;;;;;;16.38;7.60;;;;;;;12.31;nan;100919.72;4921202;29;20032;-71
2023/05/04 05:49:20;;;;;;;14.30;8.40;;;;;;;12.33;nan;100936.94;4922779;29;20051;-71
2023/05/04 05:51:45;;;;;;;14.55;7.78;;;;;;;12.30;nan;100936.56;4920264;29;20527;-71
2023/05/04 05:54:11;;;;;;;12.70;8.02;;;;;;;12.37;nan;100937.28;4927395;29;20056;-70
2023/05/04 05:56:36;;;;;;;18.55;9.38;;;;;;;12.33;nan;100938.75;4920984;29;20403;-71
2023/05/04 05:59:02;;;;;;;20.23;9.60;;;;;;;12.35;nan;100942.00;4921090;29;20035;-71
2023/05/04 06:01:27;;;;;;;17.25;9.02;;;;;;;12.39;nan;100931.78;4921393;29;20031;-70
2023/05/04 06:03:52;;;;;;;16.10;8.27;;;;;;;12.43;nan;100938.25;4921752;29;20499;-72
2023/05/04 06:06:18;;;;;;;18.27;8.27;;;;;;;12.38;nan;100938.91;4929334;29;20094;-72
2023/05/04 06:08:43;;;;;;;22.50;8.75;;;;;;;12.40;nan;100950.03;4921266;29;20078;-72
2023/05/04 06:11:10;;;;;;;15.98;8.60;;;;;;;12.42;nan;100952.47;4922017;29;20058;-72
2023/05/04 06:13:36;;;;;;;21.48;9.13;;;;;;;12.45;nan;100968.69;4921384;29;20031;-72
2023/05/04 06:16:01;;;;;;;16.05;8.80;;;;;;;12.46;nan;100959.72;4921897;29;20613;-72
2023/05/04 06:18:26;;;;;;;16.33;8.63;;;;;;;12.44;nan;100951.22;4926662;29;20454;-72
2023/05/04 06:20:59;;;;;;;15.95;9.18;;;;;;;12.46;nan;100953.66;4926263;29;20102;-72
2023/05/04 06:23:26;;;;;;;15.75;9.60;;;;;;;12.45;nan;100962.59;4924887;29;20103;-72
2023/05/04 06:25:51;;;;;;;16.42;8.70;;;;;;;12.43;nan;100973.38;4922101;29;20035;-73
2023/05/04 06:28:17;;;;;;;13.45;8.68;;;;;;;12.39;nan;100961.66;4921548;29;20028;-72
2023/05/04 06:30:43;;;;;;;13.20;7.70;;;;;;;12.45;nan;100973.97;4919227;29;20015;-72
2023/05/04 06:33:09;;;;;;;13.13;8.02;;;;;;;12.33;nan;100966.00;4923724;29;20704;-72
2023/05/04 06:35:34;;;;;;;16.45;8.95;;;;;;;12.34;nan;100961.50;4917468;29;20055;-72
2023/05/04 06:38:00;;;;;;;14.05;8.90;;;;;;;12.43;nan;100976.03;4924777;29;20028;-72
2023/05/04 06:40:25;;;;;;;14.30;8.75;;;;;;;12.48;nan;100975.38;4926322;29;20035;-72
2023/05/04 06:42:51;;;;;;;16.23;8.68;;;;;;;12.41;nan;100970.16;4926259;29;21049;-72
2023/05/04 06:45:16;;;;;;;18.63;9.40;;;;;;;12.45;nan;100976.63;4922586;29;20482;-72
2023/05/04 06:47:42;;;;;;;14.82;8.55;;;;;;;12.59;nan;100989.63;4935329;28;20023;-71
2023/05/04 06:50:08;;;;;;;16.60;9.43;;;;;;;12.58;nan;100974.84;4922654;29;20028;-72
2023/05/04 06:52:37;;;;;;;16.95;8.57;;;;;;;12.65;nan;100978.19;4922651;29;20181;-72
2023/05/04 06:55:03;;;;;;;16.92;8.90;;;;;;;12.74;nan;100993.50;4921103;29;20031;-72
2023/05/04 06:57:28;;;;;;;19.75;9.80;;;;;;;12.69;nan;100989.91;4919849;29;20035;-69
2023/05/04 06:59:53;;;;;;;15.38;9.25;;;;;;;12.69;nan;100981.97;4923312;29;20430;-69
2023/05/04 07:02:19;;;;;;;15.70;8.63;;;;;;;12.83;nan;100993.19;4919842;29;20139;-72
2023/05/04 07:04:44;;;;;;;12.23;8.63;;;;;;;12.82;nan;100987.09;4920374;29;20185;-70
2023/05/04 07:07:10;;;;;;;15.15;9.60;;;;;;;12.88;nan;100995.94;4925232;29;20036;-70
2023/05/04 07:09:35;;;;;;;17.58;9.40;;;;;;;12.88;nan;100988.84;4922380;28;20026;-70
2023/05/04 07:12:01;;;;;;;16.30;9.82;;;;;;;12.87;nan;100981.13;4920174;29;20075;-70
2023/05/04 07:14:27;;;;;;;15.98;9.60;;;;;;;12.96;nan;101000.94;4921426;29;20050;-71
2023/05/04 07:16:52;;;;;;;16.88;10.18;;;;;;;12.97;nan;100997.25;4920013;29;20490;-70
2023/05/04 07:19:17;;;;;;;15.52;10.13;;;;;;;12.98;nan;100999.66;4921743;29;20052;-70
2023/05/04 07:21:43;;;;;;;18.65;9.82;;;;;;;13.02;nan;100999.22;4921035;29;20767;-71
2023/05/04 07:24:08;;;;;;;14.88;10.50;;;;;;;13.08;nan;101001.75;4919762;29;20043;-71
2023/05/04 07:26:34;;;;;;;38.90;28.48;;;;;;;12.92;nan;100983.91;4919510;29;20028;-71
2023/05/04 07:28:59;;;;;;;13.80;9.77;;;;;;;13.10;nan;101015.56;4919946;29;20023;-71
2023/05/04 07:31:25;;;;;;;13.00;9.15;;;;;;;13.10;nan;101018.22;4921218;29;20036;-69
2023/05/04 07:33:50;;;;;;;15.75;10.40;;;;;;;13.13;nan;101022.25;4925880;29;20043;-70
2023/05/04 07:36:16;;;;;;;17.38;10.00;;;;;;;13.18;nan;101025.00;4922249;29;20039;-70
2023/05/04 07:38:41;;;;;;;14.02;9.48;;;;;;;13.09;nan;101015.78;4921407;29;20027;-70
2023/05/04 07:41:06;;;;;;;17.10;10.32;;;;;;;13.17;nan;101026.84;4922080;29;20031;-69
2023/05/04 07:43:32;;;;;;;13.93;9.88;;;;;;;13.21;nan;101027.19;4922115;29;20567;-70
2023/05/04 07:45:57;;;;;;;14.55;10.15;;;;;;;13.23;nan;101033.06;4920142;29;20063;-70
2023/05/04 07:48:22;;;;;;;15.75;9.90;;;;;;;13.25;nan;101028.34;4923755;29;20443;-71
2023/05/04 07:50:49;;;;;;;14.63;9.70;;;;;;;13.15;nan;101017.53;4919557;29;20019;-70
2023/05/04 07:53:14;;;;;;;14.23;9.40;;;;;;;13.26;nan;101029.97;4919276;29;20031;-71
2023/05/04 07:55:39;;;;;;;14.20;9.70;;;;;;;13.26;nan;101029.16;4929925;28;20368;-71
2023/05/04 07:58:05;;;;;;;13.80;9.95;;;;;;;13.28;nan;101030.56;4927837;29;20023;-71
2023/05/04 08:00:30;;;;;;;17.05;9.98;;;;;;;13.30;nan;101040.94;4927872;29;20103;-71
2023/05/04 08:02:56;;;;;;;13.77;9.43;;;;;;;13.23;nan;101030.41;4928477;29;20036;-70
2023/05/04 08:05:22;;;;;;;15.55;11.30;;;;;;;13.32;nan;101033.59;4929183;29;20416;-71
2023/05/04 08:07:47;;;;;;;16.33;10.45;;;;;;;13.27;nan;101025.50;4929336;29;20051;-72
2023/05/04 08:10:13;;;;;;;16.85;10.18;;;;;;;13.38;nan;101040.59;4929217;29;20316;-70
2023/05/04 08:12:39;;;;;;;18.48;10.45;;;;;;;13.37;nan;101033.69;4922458;29;20034;-72
2023/05/04 08:15:06;;;;;;;17.38;10.55;;;;;;;13.38;nan;101038.78;4920710;29;20463;-71
2023/05/04 08:17:33;;;;;;;14.88;9.93;;;;;;;13.42;nan;101041.75;4915549;29;20039;-72
2023/05/04 08:19:59;;;;;;;18.42;11.02;;;;;;;13.39;nan;101037.72;4919965;29;20510;-71
2023/05/04 08:22:25;;;;;;;16.15;11.02;;;;;;;13.50;nan;101053.84;4922840;29;20038;-71
2023/05/04 08:24:50;;;;;;;21.00;11.57;;;;;;;13.54;nan;101055.00;4923165;29;20024;-71
2023/05/04 08:27:16;;;;;;;16.63;10.65;;;;;;;13.50;nan;101049.34;4919981;29;20066;-69
2023/05/04 08:29:41;;;;;;;14.57;10.48;;;;;;;13.53;nan;101061.34;4917488;29;20787;-70
2023/05/04 08:32:07;;;;;;;16.58;10.70;;;;;;;13.46;nan;101047.41;4921356;29;20035;-71
2023/05/04 08:34:33;;;;;;;19.65;11.15;;;;;;;13.51;nan;101058.13;4923223;29;20091;-71
2023/05/04 08:36:58;;;;;;;14.80;10.20;;;;;;;13.33;nan;101025.41;4926819;29;20470;-70
2023/05/04 08:39:23;;;;;;;17.98;11.05;;;;;;;13.58;nan;101064.09;4921067;29;20122;-71
2023/05/04 08:41:49;;;;;;;18.15;10.73;;;;;;;13.58;nan;101056.97;4919797;29;20032;-70
2023/05/04 08:44:16;;;;;;;15.20;11.18;;;;;;;13.61;nan;101067.09;4919079;29;20040;-70
2023/05/04 08:46:42;;;;;;;16.42;10.68;;;;;;;13.61;nan;101053.06;4918397;29;20142;-71
2023/05/04 08:49:09;;;;;;;18.13;10.57;;;;;;;13.67;nan;101060.09;4919330;29;20093;-71
2023/05/04 08:51:36;;;;;;;16.42;10.30;;;;;;;13.70;nan;101054.34;4921957;29;20024;-71
2023/05/04 08:54:06;;;;;;;15.02;9.75;;;;;;;13.74;nan;101068.72;4920784;29;20042;-71
2023/05/04 08:56:31;;;;;;;17.42;10.05;;;;;;;13.67;nan;101040.75;4922207;29;20499;-71
2023/05/04 08:59:00;;;;;;;15.93;10.60;;;;;;;13.77;nan;101055.03;4921202;29;20055;-71
2023/05/04 09:01:27;;;;;;;16.00;10.32;;;;;;;13.79;nan;101057.44;4917332;29;20028;-71
2023/05/04 09:03:52;;;;;;;14.90;9.63;;;;;;;13.79;nan;101050.31;4918074;29;20413;-70
2023/05/04 09:06:19;;;;;;;16.50;10.60;;;;;;;13.88;nan;101052.59;4919467;29;20060;-70
2023/05/04 09:08:45;;;;;;;14.55;10.18;;;;;;;13.88;nan;101049.97;4918474;29;20044;-71
2023/05/04 09:11:10;;;;;;;16.40;9.77;;;;;;;13.92;nan;101053.75;4920042;29;20035;-71
2023/05/04 09:13:36;;;;;;;19.67;9.85;;;;;;;13.76;nan;101018.19;4917666;29;20107;-72
2023/05/04 09:16:02;;;;;;;13.90;9.68;;;;;;;13.96;nan;101045.13;4919944;29;20043;-70
2023/05/04 09:18:36;;;;;;;14.82;9.90;;;;;;;13.93;nan;101056.16;4918911;29;20020;-70
2023/05/04 09:21:02;;;;;;;17.98;9.07;;;;;;;13.97;nan;101053.88;4922747;29;20035;-70
2023/05/04 09:23:27;;;;;;;16.02;9.95;;;;;;;14.00;nan;101048.09;4923869;29;20020;-70
2023/05/04 09:25:54;;;;;;;14.70;9.90;;;;;;;14.05;nan;101042.91;4922026;28;20060;-72
2023/05/04 09:28:40;;;;;;;12.95;8.88;;;;;;;14.14;nan;101038.88;4920013;29;20032;-70
2023/05/04 09:31:06;;;;;;;13.90;9.20;;;;;;;14.23;nan;101045.44;4923169;29;20031;-71
2023/05/04 09:33:32;;;;;;;16.77;9.68;;;;;;;14.23;nan;101040.13;4934237;28;20731;-72
2023/05/04 09:35:59;;;;;;;13.10;9.57;;;;;;;14.20;nan;101024.72;4923560;29;20035;-71
2023/05/04 09:38:28;;;;;;;14.10;9.93;;;;;;;14.32;nan;101039.75;4921014;29;20027;-72
2023/05/04 09:40:54;;;;;;;;;;;;;;;14.38;nan;101047.59;4924873;29;20069;-71
2023/05/04 09:43:19;;;;;;;14.13;9.07;;;;;;;14.34;nan;101035.03;4925213;28;19966;-71
2023/05/04 09:45:46;;;;;;;15.20;8.88;;;;;;;14.35;nan;101034.81;4924373;29;20032;-72
2023/05/04 09:48:16;;;;;;;14.52;9.27;;;;;;;14.46;nan;101046.41;4925520;29;20652;-72
2023/05/04 09:50:56;;;;;;;13.27;9.48;;;;;;;14.50;nan;101050.22;4940134;28;20672;-71
2023/05/04 09:53:26;;;;;;;15.57;9.13;;;;;;;14.50;nan;101050.22;4920448;29;20048;-71
2023/05/04 09:56:09;;;;;;;11.18;8.63;;;;;;;14.47;nan;101043.53;4921022;29;20024;-72
2023/05/04 09:58:35;;;;;;;14.82;9.00;;;;;;;14.53;nan;101040.97;4920071;29;20161;-71
2023/05/04 10:01:01;;;;;;;14.55;9.55;;;;;;;14.55;nan;101037.09;4927735;29;20411;-71
2023/05/04 10:03:28;;;;;;;14.73;9.73;;;;;;;14.50;nan;101021.06;4921323;29;20087;-71
2023/05/04 10:05:53;;;;;;;12.95;8.40;;;;;;;14.58;nan;101036.63;4921364;29;20052;-70
2023/05/04 10:08:19;;;;;;;14.02;9.00;;;;;;;14.59;nan;101027.63;4922923;29;20042;-71
2023/05/04 10:10:45;;;;;;;15.68;9.32;;;;;;;14.61;nan;101028.22;4928395;29;20519;-71
2023/05/04 10:13:10;;;;;;;17.65;8.95;;;;;;;14.57;nan;101021.75;4921574;29;20450;-71
2023/05/04 10:15:46;;;;;;;12.10;8.45;;;;;;;14.62;nan;101024.50;4925249;29;20035;-71
2023/05/04 10:18:26;;;;;;;12.77;8.77;;;;;;;14.54;nan;101014.28;4919984;29;20066;-67
2023/05/04 10:21:14;;;;;;;11.02;8.70;;;;;;;14.62;nan;101024.50;4929839;29;20114;-67
2023/05/04 10:24:24;;;;;;;14.82;9.02;;;;;;;14.62;nan;101019.19;4922662;29;20035;-67
2023/05/04 10:27:11;;;;;;;14.07;9.40;;;;;;;14.54;nan;101016.94;4908946;29;20563;-69
2023/05/04 10:29:38;;;;;;;12.63;8.98;;;;;;;14.64;nan;101025.06;4921671;29;20062;-69
2023/05/04 10:32:06;;;;;;;11.85;9.10;;;;;;;14.65;nan;101031.19;4920027;29;20024;-68
2023/05/04 10:34:33;;;;;;;11.18;8.57;;;;;;;14.65;nan;101031.19;4923005;29;20036;-68
2023/05/04 10:37:00;;;;;;;12.35;9.07;;;;;;;14.71;nan;101026.78;4923403;29;20035;-73
2023/05/04 10:39:29;;;;;;;14.13;9.85;;;;;;;14.72;nan;101031.84;4920979;29;20032;-74
2023/05/04 10:41:58;;;;;;;14.43;9.45;;;;;;;14.74;nan;101029.75;4923157;29;20024;-73
2023/05/04 10:44:24;;;;;;;15.40;9.85;;;;;;;14.75;nan;101018.13;4927099;29;20023;-68
2023/05/04 10:47:01;;;;;;;16.42;9.40;;;;;;;14.76;nan;101026.88;4923558;29;20461;-68
2023/05/04 10:49:27;;;;;;;15.18;10.70;;;;;;;14.78;nan;101022.94;4925312;29;20027;-69
2023/05/04 10:52:23;;;;;;;15.10;9.88;;;;;;;14.75;nan;101018.13;4925215;29;20465;-72
2023/05/04 10:54:58;;;;;;;13.18;9.98;;;;;;;14.68;nan;101012.16;4919724;29;20490;-73
2023/05/04 10:57:23;;;;;;;16.05;10.88;;;;;;;14.83;nan;101019.59;4918156;29;20111;-72
2023/05/04 10:59:56;;;;;;;16.05;10.73;;;;;;;14.86;nan;101030.50;4918581;29;20143;-72
2023/05/04 11:02:23;;;;;;;14.65;10.60;;;;;;;14.85;nan;101010.34;4922711;29;20519;-67
2023/05/04 11:05:03;;;;;;;17.25;10.50;;;;;;;14.86;nan;101019.91;4919394;29;20086;-72
2023/05/04 11:07:37;;;;;;;16.08;10.43;;;;;;;14.96;nan;101021.94;4914111;29;20092;-72
2023/05/04 11:10:04;;;;;;;17.00;10.73;;;;;;;14.93;nan;101003.06;4920170;29;20028;-71
2023/05/04 11:12:33;;;;;;;14.23;10.35;;;;;;;15.02;nan;101020.19;4923173;29;20524;-72
2023/05/04 11:15:10;;;;;;;;;;;;;;;15.02;nan;101017.53;4923178;29;20043;-73
2023/05/04 11:17:45;;;;;;;17.98;10.25;;;;;;;15.03;nan;101008.53;4921386;29;19921;-73
2023/05/04 11:20:17;;;;;;;16.58;10.60;;;;;;;14.98;nan;101001.28;4920314;29;20034;-73
2023/05/04 11:22:43;;;;;;;15.07;10.20;;;;;;;14.88;nan;100980.69;4918915;29;20040;-72
2023/05/04 11:25:08;;;;;;;14.55;10.32;;;;;;;14.85;nan;100959.97;4922378;29;20028;-72
2023/05/04 11:27:34;;;;;;;16.52;10.65;;;;;;;15.14;nan;100983.00;4919633;29;20478;-71
2023/05/04 11:30:00;;;;;;;19.08;10.75;;;;;;;15.17;nan;100991.25;4921981;29;20056;-74
2023/05/04 11:32:37;;;;;;;14.70;10.48;;;;;;;15.28;nan;100984.28;4920811;29;20148;-74